Time;durP1;ratioP1;P1;durP2;ratioP2;P2;SDS_P1;SDS_P2;PMS_P1;PMS_P2;Temp;Humidity;BMP_temperature;BMP_pressure;BME280_temperature;BME280_humidity;BME280_pressure;Samples;Min_cycle;Max_cycle;Signal;HPM_P1;HPM_P2
2021/10/10 00:00:07;;;;;;;;;37.00;29.67;;;;;;;;5023173;28;11624;-75
2021/10/10 00:02:32;;;;;;;;;32.50;29.50;;;;;;;;5011185;28;12916;-75
2021/10/10 00:04:57;;;;;;;;;41.00;32.00;;;;;;;;5011618;28;12657;-74
2021/10/10 00:07:22;;;;;;;;;37.33;34.00;;;;;;;;5020890;28;17545;-75
2021/10/10 00:09:48;;;;;;;;;32.67;29.33;;;;;;;;5011222;28;19258;-75
2021/10/10 00:12:13;;;;;;;;;34.33;27.00;;;;;;;;5017034;28;11512;-75
2021/10/10 00:14:38;;;;;;;;;27.00;25.33;;;;;;;;5012160;28;22905;-75
2021/10/10 00:17:03;;;;;;;;;30.00;29.33;;;;;;;;5015520;28;11541;-75
2021/10/10 00:19:28;;;;;;;;;34.67;29.33;;;;;;;;5011780;28;16143;-75
2021/10/10 00:21:54;;;;;;;;;38.33;33.33;;;;;;;;5004051;28;22716;-75
2021/10/10 00:24:19;;;;;;;;;44.00;34.00;;;;;;;;5021614;28;11503;-76
2021/10/10 00:26:44;;;;;;;;;34.67;28.00;;;;;;;;5009725;28;16045;-75
2021/10/10 00:29:09;;;;;;;;;38.67;29.00;;;;;;;;5016281;28;13927;-75
2021/10/10 00:31:35;;;;;;;;;37.67;29.00;;;;;;;;5007611;28;14354;-74
2021/10/10 00:34:00;;;;;;;;;38.50;29.50;;;;;;;;5004965;28;15048;-74
2021/10/10 00:36:25;;;;;;;;;37.00;32.00;;;;;;;;5012328;28;8831;-75
2021/10/10 00:38:50;;;;;;;;;33.25;28.50;;;;;;;;5014067;28;18010;-74
2021/10/10 00:41:16;;;;;;;;;33.67;29.00;;;;;;;;5015735;28;15462;-76
2021/10/10 00:43:41;;;;;;;;;33.00;27.00;;;;;;;;5014470;28;17400;-75
2021/10/10 00:46:06;;;;;;;;;29.67;27.33;;;;;;;;5014851;28;13394;-75
2021/10/10 00:48:31;;;;;;;;;33.00;29.33;;;;;;;;5026274;28;13176;-75
2021/10/10 00:50:57;;;;;;;;;33.67;29.00;;;;;;;;5011617;28;16908;-75
2021/10/10 00:53:23;;;;;;;;;36.25;30.00;;;;;;;;5020449;28;19195;-75
2021/10/10 00:55:49;;;;;;;;;33.00;30.00;;;;;;;;5027688;28;16973;-75
2021/10/10 00:58:15;;;;;;;;;41.75;28.75;;;;;;;;5005065;28;16792;-75
2021/10/10 01:00:40;;;;;;;;;33.75;31.75;;;;;;;;5009049;28;17962;-75
2021/10/10 01:03:06;;;;;;;;;39.25;34.25;;;;;;;;5018251;28;17050;-74
2021/10/10 01:05:32;;;;;;;;;38.75;32.25;;;;;;;;5015276;28;19160;-74
2021/10/10 01:07:57;;;;;;;;;35.75;27.50;;;;;;;;5017526;28;17391;-75
2021/10/10 01:10:22;;;;;;;;;36.75;30.00;;;;;;;;5017480;28;17158;-74
2021/10/10 01:12:47;;;;;;;;;38.00;32.00;;;;;;;;5019089;28;15959;-75
2021/10/10 01:15:13;;;;;;;;;36.75;29.50;;;;;;;;5016942;28;17600;-75
2021/10/10 01:17:38;;;;;;;;;39.75;29.75;;;;;;;;5009420;28;12641;-74
2021/10/10 01:20:06;;;;;;;;;39.75;34.00;;;;;;;;5013678;28;16997;-74
2021/10/10 01:22:31;;;;;;;;;37.75;32.25;;;;;;;;5007347;28;16301;-74
2021/10/10 01:25:39;;;;;;;;;16.50;12.50;;;;;;;;3282378;28;58553966;-74
2021/10/10 01:28:04;;;;;;;;;36.00;33.50;;;;;;;;4637486;28;7290539;-75
2021/10/10 01:30:30;;;;;;;;;38.25;32.75;;;;;;;;5018138;28;8760;-74
2021/10/10 01:32:55;;;;;;;;;41.25;34.25;;;;;;;;5002234;28;15664;-75
2021/10/10 01:35:21;;;;;;;;;39.25;31.25;;;;;;;;5005393;28;11904;-74
2021/10/10 01:37:46;;;;;;;;;39.00;32.75;;;;;;;;5016107;28;16996;-74
2021/10/10 01:40:11;;;;;;;;;36.00;33.00;;;;;;;;5016732;28;13474;-74
2021/10/10 01:42:37;;;;;;;;;31.75;30.75;;;;;;;;5024414;28;11615;-74
2021/10/10 01:45:02;;;;;;;;;39.00;33.67;;;;;;;;5005214;28;13521;-75
2021/10/10 01:47:27;;;;;;;;;40.50;32.00;;;;;;;;4904288;28;3007865;-74
2021/10/10 01:49:53;;;;;;;;;38.50;34.50;;;;;;;;4267470;28;17422303;-74
2021/10/10 01:52:18;;;;;;;;;41.00;34.00;;;;;;;;5010299;28;8908;-75
2021/10/10 01:54:43;;;;;;;;;42.67;32.67;;;;;;;;5019771;28;14467;-75
2021/10/10 01:57:08;;;;;;;;;35.00;32.00;;;;;;;;5018622;28;11549;-75
2021/10/10 01:59:33;;;;;;;;;29.00;25.00;;;;;;;;4762509;28;7209007;-74
2021/10/10 02:01:59;;;;;;;;;39.75;34.00;;;;;;;;5012384;28;18116;-74
2021/10/10 02:04:24;;;;;;;;;38.00;32.33;;;;;;;;5021212;28;17892;-74
2021/10/10 02:06:49;;;;;;;;;35.67;29.33;;;;;;;;5016404;28;13084;-74
2021/10/10 02:09:14;;;;;;;;;37.33;29.00;;;;;;;;5016897;28;11207;-75
2021/10/10 02:11:39;;;;;;;;;42.50;34.75;;;;;;;;5014868;28;18428;-74
2021/10/10 02:14:05;;;;;;;;;37.75;29.50;;;;;;;;5018298;28;16665;-74
2021/10/10 02:16:30;;;;;;;;;43.67;31.00;;;;;;;;5022353;28;12034;-74
2021/10/10 02:18:55;;;;;;;;;37.00;31.25;;;;;;;;5010682;28;18229;-75
2021/10/10 02:21:20;;;;;;;;;43.00;32.33;;;;;;;;5011281;28;8808;-74
2021/10/10 02:23:45;;;;;;;;;38.67;31.67;;;;;;;;5015191;28;16347;-74
2021/10/10 02:26:11;;;;;;;;;46.00;34.33;;;;;;;;5010610;28;13551;-75
2021/10/10 02:28:36;;;;;;;;;37.33;34.67;;;;;;;;5019726;28;17843;-74
2021/10/10 02:31:01;;;;;;;;;41.67;32.00;;;;;;;;5012565;28;15709;-74
2021/10/10 02:33:26;;;;;;;;;41.33;32.00;;;;;;;;5024216;28;10880;-74
2021/10/10 02:35:52;;;;;;;;;43.33;36.00;;;;;;;;5015324;28;13501;-74
2021/10/10 02:38:17;;;;;;;;;43.67;34.33;;;;;;;;5012426;28;16198;-74
2021/10/10 02:40:42;;;;;;;;;34.25;31.00;;;;;;;;5015661;28;15533;-75
2021/10/10 02:43:08;;;;;;;;;38.33;31.00;;;;;;;;5017029;28;18377;-75
2021/10/10 02:45:33;;;;;;;;;35.75;29.75;;;;;;;;5027168;28;10559;-74
2021/10/10 02:47:58;;;;;;;;;38.33;30.33;;;;;;;;5018912;28;16185;-74
2021/10/10 02:50:23;;;;;;;;;40.33;36.00;;;;;;;;5019611;28;11255;-75
2021/10/10 02:52:48;;;;;;;;;39.33;31.33;;;;;;;;5021765;28;15715;-75
2021/10/10 02:55:14;;;;;;;;;35.75;31.00;;;;;;;;4856481;28;4358033;-75
2021/10/10 02:57:39;;;;;;;;;38.67;31.00;;;;;;;;5017644;28;11377;-75
2021/10/10 03:00:05;;;;;;;;;38.00;31.33;;;;;;;;5021293;28;11536;-74
2021/10/10 03:02:30;;;;;;;;;36.50;29.50;;;;;;;;5010984;28;16498;-75
2021/10/10 03:04:55;;;;;;;;;39.00;31.00;;;;;;;;5017982;28;13350;-75
2021/10/10 03:07:20;;;;;;;;;47.33;35.00;;;;;;;;5010476;28;11157;-74
2021/10/10 03:09:45;;;;;;;;;39.00;31.00;;;;;;;;5019275;28;15722;-74
2021/10/10 03:12:11;;;;;;;;;33.00;30.00;;;;;;;;5278976;22;11557;-74
2021/10/10 03:14:36;;;;;;;;;36.33;33.67;;;;;;;;5029908;28;17014;-74
2021/10/10 03:17:01;;;;;;;;;37.67;30.00;;;;;;;;5030785;28;23541;-74
2021/10/10 03:19:27;;;;;;;;;41.00;33.75;;;;;;;;5030854;28;17491;-74
2021/10/10 03:21:52;;;;;;;;;34.00;29.67;;;;;;;;5042802;28;18933;-74
2021/10/10 03:24:17;;;;;;;;;39.67;31.33;;;;;;;;5034328;28;12308;-75
2021/10/10 03:26:42;;;;;;;;;45.00;30.67;;;;;;;;5036625;28;12973;-74
2021/10/10 03:29:07;;;;;;;;;47.67;31.00;;;;;;;;5032568;28;15553;-75
2021/10/10 03:31:33;;;;;;;;;42.00;31.00;;;;;;;;5030276;28;16368;-74
2021/10/10 03:33:58;;;;;;;;;36.00;30.67;;;;;;;;5028179;28;17359;-75
2021/10/10 03:36:23;;;;;;;;;35.33;34.33;;;;;;;;5036959;28;9672;-74
2021/10/10 03:38:48;;;;;;;;;37.25;31.75;;;;;;;;5030686;28;9357;-74
2021/10/10 03:41:14;;;;;;;;;41.67;33.00;;;;;;;;5034119;28;17281;-74
2021/10/10 03:43:39;;;;;;;;;38.33;34.33;;;;;;;;5030693;28;15554;-74
2021/10/10 03:46:05;;;;;;;;;42.25;35.75;;;;;;;;5024549;28;23709;-74
2021/10/10 03:48:30;;;;;;;;;42.50;32.25;;;;;;;;5033267;28;8925;-74
2021/10/10 03:50:55;;;;;;;;;34.00;31.00;;;;;;;;5030885;28;16148;-74
2021/10/10 03:53:24;;;;;;;;;38.50;34.50;;;;;;;;5032535;28;18933;-74
2021/10/10 03:55:51;;;;;;;;;40.00;31.75;;;;;;;;5029856;28;16254;-74
2021/10/10 03:58:17;;;;;;;;;40.00;31.25;;;;;;;;5028719;28;17078;-75
2021/10/10 04:00:42;;;;;;;;;42.00;35.25;;;;;;;;5025494;28;16682;-76
2021/10/10 04:03:09;;;;;;;;;47.25;36.25;;;;;;;;5043201;28;8867;-75
2021/10/10 04:08:00;;;;;;;;;41.33;32.33;;;;;;;;5035322;28;13172;-75
2021/10/10 04:10:26;;;;;;;;;36.50;33.50;;;;;;;;5028727;28;16460;-77
2021/10/10 04:12:51;;;;;;;;;39.75;34.25;;;;;;;;5028319;28;16015;-74
2021/10/10 04:15:17;;;;;;;;;50.67;39.67;;;;;;;;5034608;28;16991;-74
2021/10/10 04:20:18;;;;;;;;;43.75;37.50;;;;;;;;6163833;22;8772;-75
2021/10/10 04:22:44;;;;;;;;;55.00;37.25;;;;;;;;5023865;28;23504;-74
2021/10/10 04:25:09;;;;;;;;;44.00;35.00;;;;;;;;5011547;28;16363;-74
2021/10/10 04:27:36;;;;;;;;;51.25;36.00;;;;;;;;4994840;28;8812;-75
2021/10/10 04:30:02;;;;;;;;;42.25;35.75;;;;;;;;5013253;28;18013;-74
2021/10/10 04:32:27;;;;;;;;;45.00;36.00;;;;;;;;5013715;28;26168;-74
2021/10/10 04:34:53;;;;;;;;;50.33;39.33;;;;;;;;5015977;28;15510;-74
2021/10/10 04:37:18;;;;;;;;;44.33;36.00;;;;;;;;5017449;28;13694;-74
2021/10/10 04:39:43;;;;;;;;;50.25;36.25;;;;;;;;3828466;28;19528790;-75
2021/10/10 04:42:09;;;;;;;;;51.00;39.50;;;;;;;;4760746;22;4357622;-74
2021/10/10 04:44:36;;;;;;;;;44.25;36.25;;;;;;;;5029680;28;22165;-74
2021/10/10 04:47:01;;;;;;;;;42.25;36.75;;;;;;;;5036168;28;16370;-74
2021/10/10 04:49:27;;;;;;;;;48.75;38.25;;;;;;;;4924034;28;3012778;-74
2021/10/10 04:51:52;;;;;;;;;46.75;37.00;;;;;;;;5031740;28;17104;-74
2021/10/10 04:54:17;;;;;;;;;47.33;39.00;;;;;;;;5035176;28;9555;-74
2021/10/10 04:56:42;;;;;;;;;41.50;36.75;;;;;;;;4668767;28;10238361;-74
2021/10/10 04:59:36;;;;;;;;;;;;;;;;;;4007260;28;48364012;-75
2021/10/10 05:02:01;;;;;;;;;47.50;38.00;;;;;;;;3201501;28;26786072;-73
2021/10/10 05:04:27;;;;;;;;;54.25;42.75;;;;;;;;5028570;28;15006;-75
2021/10/10 05:06:52;;;;;;;;;51.00;38.67;;;;;;;;5029047;28;15146;-76
2021/10/10 05:10:12;;;;;;;;;33.00;24.50;;;;;;;;4520007;28;69546457;-75
2021/10/10 05:12:37;;;;;;;;;20.75;8.25;;;;;;;;4870212;28;4358184;-74
2021/10/10 05:15:06;;;;;;;;;52.00;40.50;;;;;;;;5033414;28;11892;-75
2021/10/10 05:17:31;;;;;;;;;49.50;38.50;;;;;;;;5036207;28;15511;-75
2021/10/10 05:19:56;;;;;;;;;50.00;38.25;;;;;;;;5025983;28;18515;-74
2021/10/10 05:22:22;;;;;;;;;38.67;32.67;;;;;;;;1863808;28;61462558;-74
2021/10/10 05:24:47;;;;;;;;;50.00;41.00;;;;;;;;4463395;28;16127617;-74
2021/10/10 05:27:12;;;;;;;;;53.75;37.50;;;;;;;;5022785;28;9928;-74
2021/10/10 05:29:37;;;;;;;;;48.00;37.00;;;;;;;;5028422;28;19480;-74
2021/10/10 05:32:03;;;;;;;;;44.67;37.33;;;;;;;;5028513;28;16690;-74
2021/10/10 05:34:28;;;;;;;;;52.33;39.67;;;;;;;;5028550;28;12426;-75
2021/10/10 05:36:54;;;;;;;;;28.75;27.50;;;;;;;;4000556;28;29767961;-74
2021/10/10 05:39:19;;;;;;;;;52.75;39.00;;;;;;;;2648976;28;68758346;-74
2021/10/10 05:41:46;;;;;;;;;46.50;38.00;;;;;;;;4461463;28;10255171;-74
2021/10/10 05:44:12;;;;;;;;;54.75;37.75;;;;;;;;4628713;28;7208851;-74
2021/10/10 05:46:37;;;;;;;;;52.00;36.75;;;;;;;;5029279;28;17125;-74
2021/10/10 05:49:02;;;;;;;;;49.67;38.00;;;;;;;;5027747;28;17033;-75
2021/10/10 05:51:27;;;;;;;;;50.67;37.00;;;;;;;;5034303;28;8811;-74
2021/10/10 05:53:56;;;;;;;;;44.25;38.75;;;;;;;;2666880;28;30017471;-75
2021/10/10 05:56:21;;;;;;;;;52.50;36.00;;;;;;;;5025852;28;16420;-74
2021/10/10 05:58:55;;;;;;;;;49.00;39.25;;;;;;;;5031460;28;14989;-75
2021/10/10 06:01:20;;;;;;;;;43.00;33.50;;;;;;;;4877493;28;4357416;-74
2021/10/10 06:03:45;;;;;;;;;48.50;37.75;;;;;;;;5029925;28;15730;-75
2021/10/10 06:06:10;;;;;;;;;52.67;38.67;;;;;;;;5033592;28;15775;-74
2021/10/10 06:08:36;;;;;;;;;52.67;38.00;;;;;;;;5029228;28;17279;-74
2021/10/10 06:11:01;;;;;;;;;49.67;36.00;;;;;;;;5030196;28;18779;-74
2021/10/10 06:13:27;;;;;;;;;54.25;38.50;;;;;;;;5031940;28;13003;-75
2021/10/10 06:15:52;;;;;;;;;55.25;41.50;;;;;;;;5041493;28;25217;-75
2021/10/10 06:18:17;;;;;;;;;53.25;40.50;;;;;;;;5031777;28;8827;-74
2021/10/10 06:20:42;;;;;;;;;51.00;36.67;;;;;;;;5027714;28;22442;-75
2021/10/10 06:23:08;;;;;;;;;55.33;39.33;;;;;;;;5027615;28;26506;-75
2021/10/10 06:25:33;;;;;;;;;51.33;39.67;;;;;;;;5028112;28;16302;-75
2021/10/10 06:27:58;;;;;;;;;48.50;38.00;;;;;;;;4878545;28;4358787;-75
2021/10/10 06:30:23;;;;;;;;;55.00;39.33;;;;;;;;5038177;28;8865;-74
2021/10/10 06:32:49;;;;;;;;;47.67;36.33;;;;;;;;5032178;28;17071;-74
2021/10/10 06:35:14;;;;;;;;;47.00;40.00;;;;;;;;5023735;28;15776;-75
2021/10/10 06:37:39;;;;;;;;;44.33;36.67;;;;;;;;5030636;28;17112;-74
2021/10/10 06:40:05;;;;;;;;;46.33;39.33;;;;;;;;5028092;28;18609;-74
2021/10/10 06:42:30;;;;;;;;;53.75;40.50;;;;;;;;5028202;28;11639;-75
2021/10/10 06:44:56;;;;;;;;;58.50;40.75;;;;;;;;5025410;28;16118;-74
2021/10/10 06:47:21;;;;;;;;;46.50;39.00;;;;;;;;5029917;28;15753;-75
2021/10/10 06:49:46;;;;;;;;;45.33;39.00;;;;;;;;5030358;28;16212;-75
2021/10/10 06:52:13;;;;;;;;;49.25;36.00;;;;;;;;5026814;28;16346;-74
2021/10/10 06:54:38;;;;;;;;;51.25;42.25;;;;;;;;5025035;28;17227;-75
2021/10/10 06:57:04;;;;;;;;;53.67;43.00;;;;;;;;5023894;28;9010;-75
2021/10/10 06:59:30;;;;;;;;;50.33;39.00;;;;;;;;5026131;28;16170;-75
2021/10/10 07:01:55;;;;;;;;;39.00;35.25;;;;;;;;5026649;28;19357;-75
2021/10/10 07:04:20;;;;;;;;;50.00;38.67;;;;;;;;5022149;28;12088;-75
2021/10/10 07:06:45;;;;;;;;;47.33;36.33;;;;;;;;5041272;28;11570;-75
2021/10/10 07:09:11;;;;;;;;;44.25;35.50;;;;;;;;5028958;28;11581;-74
2021/10/10 07:11:37;;;;;;;;;42.75;38.25;;;;;;;;5033186;28;12353;-75
2021/10/10 07:14:03;;;;;;;;;57.25;41.25;;;;;;;;5024385;28;16313;-74
2021/10/10 07:16:29;;;;;;;;;54.67;40.00;;;;;;;;5036184;28;16536;-75
2021/10/10 07:18:56;;;;;;;;;57.25;39.00;;;;;;;;5023147;28;17170;-75
2021/10/10 07:26:18;;;;;;;;;53.25;43.00;;;;;;;;5027059;28;15260;-75
2021/10/10 07:28:43;;;;;;;;;49.00;38.75;;;;;;;;5024265;28;17760;-74
2021/10/10 07:31:08;;;;;;;;;53.67;38.67;;;;;;;;5041284;28;18742;-75
2021/10/10 07:33:34;;;;;;;;;51.00;40.00;;;;;;;;5033466;28;11544;-75
2021/10/10 07:35:59;;;;;;;;;55.33;40.00;;;;;;;;5027669;28;20755;-76
2021/10/10 07:38:24;;;;;;;;;56.33;39.67;;;;;;;;5026756;28;18906;-74
2021/10/10 07:40:49;;;;;;;;;56.33;39.00;;;;;;;;5029222;28;17351;-75
2021/10/10 07:43:14;;;;;;;;;52.00;41.33;;;;;;;;5023856;28;12872;-75
2021/10/10 07:45:43;;;;;;;;;54.67;40.67;;;;;;;;5028433;28;15249;-75
2021/10/10 07:48:09;;;;;;;;;54.75;42.25;;;;;;;;5040368;28;11811;-74
2021/10/10 07:50:34;;;;;;;;;49.50;38.00;;;;;;;;5031823;28;16492;-75
2021/10/10 07:53:00;;;;;;;;;46.75;38.50;;;;;;;;5025831;28;17436;-75
2021/10/10 07:55:25;;;;;;;;;55.00;40.50;;;;;;;;5040217;28;17342;-75
2021/10/10 07:57:50;;;;;;;;;53.50;38.25;;;;;;;;5027229;28;18616;-75
2021/10/10 08:00:15;;;;;;;;;56.33;42.33;;;;;;;;5030974;28;16053;-74
2021/10/10 08:02:48;;;;;;;;;40.00;35.75;;;;;;;;5026347;28;11679;-75
2021/10/10 08:05:13;;;;;;;;;48.50;37.75;;;;;;;;5025342;28;14874;-75
2021/10/10 08:07:38;;;;;;;;;51.33;38.00;;;;;;;;5025299;28;15859;-75
2021/10/10 08:10:03;;;;;;;;;48.33;37.67;;;;;;;;5025472;28;15312;-75
2021/10/10 08:12:29;;;;;;;;;42.00;35.75;;;;;;;;5028520;28;11625;-75
2021/10/10 08:14:54;;;;;;;;;41.33;36.33;;;;;;;;5027055;28;21099;-74
2021/10/10 08:17:19;;;;;;;;;47.67;38.33;;;;;;;;5024838;28;14883;-73
2021/10/10 08:19:44;;;;;;;;;44.00;36.33;;;;;;;;5021024;28;12531;-75
2021/10/10 08:22:09;;;;;;;;;50.33;38.67;;;;;;;;5029984;28;17126;-75
2021/10/10 08:24:35;;;;;;;;;50.33;38.00;;;;;;;;5026157;28;11624;-75
2021/10/10 08:27:00;;;;;;;;;54.75;36.75;;;;;;;;5025954;28;16581;-74
2021/10/10 08:29:25;;;;;;;;;47.00;36.67;;;;;;;;5026337;28;13436;-74
2021/10/10 08:31:50;;;;;;;;;45.00;38.00;;;;;;;;5022165;28;17437;-73
2021/10/10 08:34:15;;;;;;;;;43.33;37.67;;;;;;;;5029765;28;15056;-74
2021/10/10 08:36:41;;;;;;;;;56.33;38.33;;;;;;;;5033979;28;24002;-75
2021/10/10 08:39:06;;;;;;;;;55.33;37.67;;;;;;;;5029985;28;16155;-74
2021/10/10 08:41:34;;;;;;;;;46.00;34.33;;;;;;;;5032042;28;14349;-74
2021/10/10 08:44:02;;;;;;;;;55.50;39.00;;;;;;;;5024707;28;16986;-74
2021/10/10 08:46:28;;;;;;;;;49.75;37.25;;;;;;;;5025998;28;25954;-75
2021/10/10 08:48:53;;;;;;;;;47.75;38.75;;;;;;;;5028754;28;25106;-74
2021/10/10 08:51:26;;;;;;;;;46.50;38.50;;;;;;;;5035499;28;8858;-74
2021/10/10 08:53:51;;;;;;;;;47.50;38.75;;;;;;;;5034438;28;15482;-74
2021/10/10 08:56:17;;;;;;;;;54.00;40.00;;;;;;;;5037513;28;17010;-74
2021/10/10 08:58:45;;;;;;;;;49.25;37.50;;;;;;;;5031016;28;17953;-73
2021/10/10 09:01:17;;;;;;;;;42.75;36.25;;;;;;;;5026849;28;13258;-74
2021/10/10 09:03:53;;;;;;;;;40.75;35.00;;;;;;;;5031781;28;10641;-75
2021/10/10 09:06:18;;;;;;;;;52.75;39.25;;;;;;;;5084111;22;8842;-75
2021/10/10 09:08:43;;;;;;;;;52.00;37.00;;;;;;;;5011323;28;22569;-75
2021/10/10 09:11:10;;;;;;;;;48.50;38.75;;;;;;;;5018392;28;17763;-73
2021/10/10 09:15:16;;;;;;;;;44.00;24.00;;;;;;;;2454938;28;97138056;-73
2021/10/10 09:20:41;;;;;;;;;;;;;;;;;;1036675;28;149488874;-74
2021/10/10 09:27:26;;;;;;;;;42.00;23.00;;;;;;;;3;126263500;140765485;-74
2021/10/10 09:29:54;;;;;;;;;;;;;;;;;;886486;28;69091239;-75
2021/10/10 09:34:52;;;;;;;;;18.50;16.00;;;;;;;;119173;28;148529484;-74
2021/10/10 09:37:24;;;;;;;;;45.00;36.75;;;;;;;;5170760;22;13568;-73
2021/10/10 09:42:38;;;;;;;;;52.50;39.00;;;;;;;;6145640;22;8753;-74
2021/10/10 09:45:13;;;;;;;;;49.00;38.00;;;;;;;;5039888;28;19818;-74
2021/10/10 09:47:47;;;;;;;;;41.25;34.50;;;;;;;;5037603;28;17076;-76
2021/10/10 09:50:13;;;;;;;;;37.00;34.00;;;;;;;;5037988;28;22497;-74
2021/10/10 09:52:38;;;;;;;;;38.00;34.75;;;;;;;;5040354;28;15744;-76
2021/10/10 09:55:04;;;;;;;;;38.67;31.67;;;;;;;;5040275;28;17136;-77
2021/10/10 09:57:29;;;;;;;;;41.25;32.75;;;;;;;;5045601;28;10413;-78
2021/10/10 09:59:54;;;;;;;;;39.00;33.25;;;;;;;;5040774;28;14914;-75
2021/10/10 10:02:36;;;;;;;;;50.67;36.33;;;;;;;;5040012;28;17316;-76
2021/10/10 10:05:02;;;;;;;;;41.50;32.00;;;;;;;;5037577;28;21905;-78
2021/10/10 10:07:27;;;;;;;;;41.50;34.25;;;;;;;;5042456;28;19992;-75
2021/10/10 10:09:54;;;;;;;;;32.75;31.50;;;;;;;;5057377;22;17040;-75
2021/10/10 10:12:20;;;;;;;;;41.75;36.25;;;;;;;;5033637;28;10073;-77
2021/10/10 10:14:52;;;;;;;;;46.75;34.75;;;;;;;;5025947;28;16576;-76
2021/10/10 10:17:19;;;;;;;;;38.25;35.00;;;;;;;;5041872;28;18431;-77
2021/10/10 10:19:45;;;;;;;;;36.00;32.00;;;;;;;;5042871;28;16584;-76
2021/10/10 10:22:11;;;;;;;;;44.75;37.50;;;;;;;;5022582;28;17068;-76
2021/10/10 10:24:37;;;;;;;;;47.25;37.25;;;;;;;;5032345;28;8754;-76
2021/10/10 10:27:02;;;;;;;;;48.00;38.50;;;;;;;;5031978;28;15907;-76
2021/10/10 10:29:30;;;;;;;;;51.00;41.33;;;;;;;;5029592;28;19146;-76
2021/10/10 10:37:03;;;;;;;;;36.75;29.75;;;;;;;;4989291;28;10105;-76
2021/10/10 10:39:41;;;;;;;;;43.00;35.50;;;;;;;;5000503;28;8773;-77
2021/10/10 10:42:13;;;;;;;;;41.50;34.50;;;;;;;;4992057;28;17881;-77
2021/10/10 10:44:38;;;;;;;;;43.00;35.25;;;;;;;;5010670;28;12871;-77
2021/10/10 10:47:04;;;;;;;;;40.75;33.25;;;;;;;;4994091;28;13769;-77
2021/10/10 10:49:48;;;;;;;;;39.25;33.00;;;;;;;;5002351;28;14681;-76
2021/10/10 10:52:20;;;;;;;;;42.25;34.25;;;;;;;;5001984;28;8830;-76
2021/10/10 10:54:45;;;;;;;;;42.50;36.00;;;;;;;;3883244;22;22328663;-75
2021/10/10 10:57:29;;;;;;;;;34.25;28.25;;;;;;;;3338930;28;48019955;-77
2021/10/10 10:59:56;;;;;;;;;42.75;33.00;;;;;;;;5002967;28;13786;-77
2021/10/10 11:02:42;;;;;;;;;31.00;24.50;;;;;;;;5000353;28;9748;-76
2021/10/10 11:05:07;;;;;;;;;31.25;25.25;;;;;;;;4993695;28;9512;-78
2021/10/10 11:10:07;;;;;;;;;33.00;27.50;;;;;;;;5071455;22;11440;-75
2021/10/10 11:12:32;;;;;;;;;27.25;23.00;;;;;;;;4701183;28;4357723;-78
2021/10/10 11:15:09;;;;;;;;;33.00;29.67;;;;;;;;4998434;28;9224;-77
2021/10/10 11:22:53;;;;;;;;;31.00;26.50;;;;;;;;5028784;23;8840;-76
2021/10/10 11:25:18;;;;;;;;;28.33;25.33;;;;;;;;4999497;28;10560;-78
2021/10/10 11:27:46;;;;;;;;;34.00;27.50;;;;;;;;4999055;28;11810;-78
2021/10/10 11:30:13;;;;;;;;;37.50;28.00;;;;;;;;4997268;28;9566;-76
2021/10/10 11:33:04;;;;;;;;;27.00;25.50;;;;;;;;5001825;28;18335;-76
2021/10/10 11:35:30;;;;;;;;;32.25;23.50;;;;;;;;5004248;28;14510;-76
2021/10/10 11:38:01;;;;;;;;;31.00;26.33;;;;;;;;4999976;28;9313;-75
2021/10/10 11:40:26;;;;;;;;;29.50;23.50;;;;;;;;4843058;28;4358256;-76
2021/10/10 11:42:55;;;;;;;;;27.00;24.33;;;;;;;;4991121;28;11728;-76
2021/10/10 11:45:22;;;;;;;;;21.75;20.25;;;;;;;;4744422;28;7358768;-75
2021/10/10 11:47:48;;;;;;;;;27.00;23.00;;;;;;;;4987379;28;11627;-76
2021/10/10 11:50:24;;;;;;;;;27.75;22.25;;;;;;;;4000342;28;11077270;-76
2021/10/10 11:53:01;;;;;;;;;22.00;20.75;;;;;;;;4651339;28;10030377;-75
2021/10/10 11:55:43;;;;;;;;;33.50;30.00;;;;;;;;4987570;28;9911;-75
2021/10/10 11:58:09;;;;;;;;;26.75;21.50;;;;;;;;4992512;28;14245;-75
2021/10/10 12:00:36;;;;;;;;;28.25;23.00;;;;;;;;4991934;28;8852;-75
2021/10/10 12:03:04;;;;;;;;;17.40;13.80;;;;;;;;3788777;28;14452102;-75
2021/10/10 12:08:15;;;;;;;;;21.33;21.33;;;;;;;;3320478;30;42834610;-74
2021/10/10 12:10:42;;;;;;;;;25.50;22.75;;;;;;;;4720977;30;15777;-75
2021/10/10 12:13:08;;;;;;;;;23.00;21.00;;;;;;;;3375958;30;31001691;-75
2021/10/10 12:15:33;;;;;;;;;29.00;24.00;;;;;;;;4037829;30;9541532;-75
2021/10/10 12:17:58;;;;;;;;;22.75;22.00;;;;;;;;3408636;30;11705610;-75
2021/10/10 12:24:27;;;;;;;;;21.00;15.50;;;;;;;;1549338;30;139241693;-75
2021/10/10 12:30:56;;;;;;;;;17.50;17.50;;;;;;;;4;24419399;130047298;-75
2021/10/10 12:35:37;;;;;;;;;24.00;22.00;;;;;;;;976312;30;139218072;-75
2021/10/10 12:41:52;;;;;;;;;;;;;;;;;;1967330;30;143267779;-75
2021/10/10 12:45:20;;;;;;;;;11.50;11.50;;;;;;;;162522;30;117317035;-75
2021/10/10 12:49:56;;;;;;;;;10.00;10.00;;;;;;;;195444;30;139585676;-76
2021/10/10 12:52:33;;;;;;;;;31.00;24.00;;;;;;;;1377877;30;56045168;-76
2021/10/10 12:57:00;;;;;;;;;;;;;;;;;;326287;30;137184372;-76
2021/10/10 13:01:18;;;;;;;;;24.50;18.50;;;;;;;;161787;30;126153071;-76
2021/10/10 13:06:13;;;;;;;;;;;;;;;;;;2720354;30;64654624;-76
2021/10/10 13:12:43;;;;;;;;;20.50;17.50;;;;;;;;3;117102345;143064764;-76
2021/10/10 13:19:12;;;;;;;;;11.50;8.50;;;;;;;;3;130920934;139821267;-75
2021/10/10 13:25:50;;;;;;;;;16.00;7.50;;;;;;;;3;126303408;139759809;-76
2021/10/10 13:28:16;;;;;;;;;;;;;;;;;;162621;30;104175872;-76
2021/10/10 13:30:43;;;;;;;;;25.75;20.50;;;;;;;;2614910;30;27457556;-76
2021/10/10 13:36:07;;;;;;;;;;;;;;;;;;2200893;30;124198240;-76
2021/10/10 13:38:50;;;;;;;;;13.00;13.00;;;;;;;;3;24464744;138510430;-76
2021/10/10 13:44:08;;;;;;;;;;;;;;;;;;315755;30;192014289;-76
2021/10/10 13:46:34;;;;;;;;;22.67;22.00;;;;;;;;2740355;30;56301765;-76
2021/10/10 13:49:00;;;;;;;;;9.00;9.00;;;;;;;;2089497;30;43047416;-76
2021/10/10 13:51:46;;;;;;;;;7.50;7.50;;;;;;;;456511;30;113664787;-76
2021/10/10 13:56:12;;;;;;;;;;;;;;;;;;481785;30;149378568;-75
2021/10/10 14:00:36;;;;;;;;;9.50;9.50;;;;;;;;1590800;30;120016535;-75
2021/10/10 14:07:30;;;;;;;;;17.00;17.00;;;;;;;;163086;30;158188850;-76
2021/10/10 14:13:51;;;;;;;;;40.50;20.50;;;;;;;;3;121938585;126755880;-76
2021/10/10 14:20:05;;;;;;;;;18.50;18.50;;;;;;;;3;117179126;129384466;-76
2021/10/10 14:22:30;;;;;;;;;25.25;21.00;;;;;;;;1010059;30;88681789;-76
2021/10/10 14:25:02;;;;;;;;;;;;;;;;;;797135;30;59737909;-76
2021/10/10 14:30:40;;;;;;;;;16.00;16.00;;;;;;;;160210;30;156271755;-76
2021/10/10 14:35:42;;;;;;;;;;;;;;;;;;2;161486340;161486340;-76
2021/10/10 14:40:29;;;;;;;;;23.50;10.50;;;;;;;;2;155624759;155624759;-76
2021/10/10 14:47:46;;;;;;;;;31.00;19.00;;;;;;;;3;119204990;140744520;-76
2021/10/10 14:54:03;;;;;;;;;15.00;15.00;;;;;;;;2;214965508;214965508;-76
2021/10/10 15:01:36;;;;;;;;;16.50;16.50;;;;;;;;2;210325266;210325266;-76
2021/10/10 15:07:10;;;;;;;;;19.50;13.00;;;;;;;;321662;30;160446434;-76
2021/10/10 15:14:20;;;;;;;;;29.50;27.00;;;;;;;;3;119750441;147999755;-76
2021/10/10 15:18:08;;;;;;;;;27.50;24.50;;;;;;;;2;164887564;164887564;-76
2021/10/10 15:23:37;;;;;;;;;28.00;21.00;;;;;;;;160685;30;154273690;-76
2021/10/10 15:31:01;;;;;;;;;20.00;20.00;;;;;;;;3;130212527;144153765;-76
2021/10/10 15:38:38;;;;;;;;;11.00;11.00;;;;;;;;3;121599050;141854624;-76
2021/10/10 15:44:09;;;;;;;;;;;;;;;;;;2;180708690;180708690;-76
2021/10/10 15:47:33;;;;;;;;;21.50;13.00;;;;;;;;2;159540094;159540094;-76
2021/10/10 15:53:05;;;;;;;;;45.50;30.50;;;;;;;;2;188817402;188817402;-76
2021/10/10 15:59:50;;;;;;;;;24.00;24.00;;;;;;;;3;130700827;132544703;-76
2021/10/10 16:06:15;;;;;;;;;25.00;24.50;;;;;;;;3;122231942;132735281;-76
2021/10/10 16:10:40;;;;;;;;;25.50;22.00;;;;;;;;3;120201676;144415161;-76
2021/10/10 16:13:07;;;;;;;;;45.50;23.00;;;;;;;;149284;30;132713306;-76
2021/10/10 16:15:41;;;;;;;;;45.50;36.00;;;;;;;;2740686;30;16586173;-76
2021/10/10 16:18:07;;;;;;;;;22.00;6.00;;;;;;;;1526605;30;31236499;-76
2021/10/10 16:23:47;;;;;;;;;;;;;;;;;;1876016;30;148455216;-76
2021/10/10 16:26:12;;;;;;;;;46.50;37.25;;;;;;;;2373431;30;40784137;-76
2021/10/10 16:31:44;;;;;;;;;31.00;19.00;;;;;;;;720803;30;126936466;-76
2021/10/10 16:34:20;;;;;;;;;44.25;36.25;;;;;;;;4270508;30;8850415;-76
2021/10/10 16:43:19;;;;;;;;;23.50;19.00;;;;;;;;2;147746019;147746019;-76
2021/10/10 16:48:37;;;;;;;;;31.00;28.50;;;;;;;;1400542;30;108829950;-76
2021/10/10 16:53:20;;;;;;;;;37.00;34.00;;;;;;;;647756;30;128318308;-75
2021/10/10 17:03:34;;;;;;;;;;;;;;;;;;2;154695447;154695447;-76
2021/10/10 17:06:13;;;;;;;;;32.50;16.00;;;;;;;;715662;24;64040833;-76
2021/10/10 17:15:11;;;;;;;;;28.50;27.00;;;;;;;;1072877;30;149160173;-76
2021/10/10 17:21:40;;;;;;;;;61.00;36.00;;;;;;;;3;120943830;127193831;-76
2021/10/10 17:24:06;;;;;;;;;53.50;42.00;;;;;;;;607715;30;109173391;-76